Tiempo atmosférico en la estación meteorológica de Andorra, Teruel (762 m.)

Fecha
DESCASC
Temp. máxima en grados centígrados (hora)
DESCASC
Temp. mínima en grados centígrados (hora)
DESCASC
Temp. media en grados centígrados
DESCASC
Racha de viento máxima en m/sg (hora)
DESCASC
Velocidad máxima media en intervalos de 10 minutos(hora)
DESCASC
Precipitaciones diarias en mm
DESCASC
Precipitaciones de 00:00 a 06:00 en mm
DESCASC
Precipitaciones de 06:00 a 12:00 en mm
DESCASC
Precipitaciones de 12:00 a 18:00 en mm
DESCASC
Precipitaciones de 18:00 a 24:00 en mm
DESCASC
17-08-2017 32.3 (17:50) 18.2 (07:40) 25.3 9.72 (00:40) 7.5 (00:40) 0 0 0 0 0
16-08-2017 28.7 (17:30) 17 (07:40) 22.9 8.61 (23:40) 6.67 (23:40) 0 0 0 0 0
15-08-2017 29.9 (14:20) 18.3 (00:00) 24.1 13.33 (19:50) 9.17 (20:30) 2.2 0 0 2.2 0
14-08-2017 31.8 (16:30) 18.7 (07:40) 25.3 12.78 (16:20) 7.78 (16:20) 0 0 0 0 0
13-08-2017 28.7 (17:20) 16.3 (00:00) 22.5 11.67 (19:00) 8.33 (18:10) 0 0 0 0 0
12-08-2017 27 (17:10) 12.9 (00:00) 19.9 11.94 (00:40) 10 (00:40) 0 0 0 0 0
11-08-2017 24.5 (18:20) 10.5 (00:00) 17.5 18.89 (04:50) 15.83 (04:50) 0 0 0 0 0
10-08-2017 21.7 (16:50) 10.1 (00:00) 15.9 16.39 (19:10) 11.67 (18:40) 0 0 0 0 0
09-08-2017 21.5 (14:40) 12.2 (00:00) 16.8 14.17 (19:00) 10.83 (19:00) 0 0 0 0 0
08-08-2017 28.4 (01:30) 15.4 (00:00) 21.9 17.5 (17:50) 12.5 (04:10) 0 0 0 0 0
07-08-2017 32.6 (17:10) 19 (00:00) 25.8 13.89 (18:00) 9.72 (17:50) 0 0 0 0 0
06-08-2017 27.3 (16:30) 15.1 (00:00) 21.2 11.39 (17:00) 7.78 (04:10) 0 0 0 0 0
05-08-2017 33.1 (15:50) 20.4 (00:00) 26.7 11.11 (21:20) 8.06 (21:30) 0 0 0 0 0
04-08-2017 34.2 (16:30) 21.3 (00:00) 27.8 9.72 (17:10) 5.83 (18:10) 0 0 0 0 0
03-08-2017 34.8 (16:50) 22 (00:00) 28.4 10 (14:10) 6.11 (14:20) 0 0 0 0 0
02-08-2017 30.2 (15:00) 20.5 (00:00) 25.4 22.5 (13:20) 17.78 (12:20) 0.6 0 0 0.6 0
01-08-2017 27.8 (19:20) 18.3 (00:00) 23 11.67 (00:50) 8.61 (01:10) 0 0 0 0 0
31-07-2017 33.9 (17:30) 18.2 (00:00) 26.1 13.06 (19:00) 9.72 (01:20) 0 0 0 0 0
30-07-2017 34.8 (16:20) 24.2 (00:00) 29.5 11.11 (17:20) 8.61 (16:40) 0 0 0 0 0
29-07-2017 32.7 (16:00) 19.9 (00:00) 26.3 10.83 (19:30) 8.06 (19:30) 0 0 0 0 0
28-07-2017 30.8 (18:50) 19.2 (00:00) 25 8.61 (21:10) 6.39 (21:10) 0 0 0 0 0
27-07-2017 32.7 (16:40) 18.6 (00:00) 25.7 9.17 (17:20) 7.5 (00:20) 0 0 0 0 0
26-07-2017 28.7 (17:10) 12.5 (00:00) 20.6 17.5 (01:50) 14.17 (01:50) 0 0 0 0 0
25-07-2017 23.6 (16:40) 13.5 (00:00) 18.6 17.78 (06:40) 13.06 (06:50) 0 0 0 0 0
24-07-2017 26 (17:00) 15.1 (00:00) 20.6 18.33 (19:30) 13.33 (19:30) 0 0 0 0 0
23-07-2017 25.1 (14:10) 15.6 (00:00) 20.4 16.39 (16:30) 9.44 (16:40) 5 0 0 5 0
22-07-2017 28.9 (17:10) 16.4 (00:00) 22.6 11.67 (15:20) 8.61 (18:00) 0 0 0 0 0

Gráficas

Temp. máximas Temp. mínimas Temp. medias Precipitaciones Rachas de viento máximas Velocidades máximas media en intervalos de 10 minutos

Datos horarios

Fecha y hora oficial Temperatura (ºC) Velocidad del viento (km/h) Dirección del viento Racha (km/h) Dirección de racha Precipitación (mm) Presión (hPa) Tendencia (hPa) Humedad (%)
2017-08-20 23:00:00 22.4 13 Oeste 19 Oeste 0 -- -- 25
2017-08-20 22:00:00 24 9 Oeste 14 Oeste 0 -- -- 21
2017-08-20 21:00:00 24.7 11 Norte 18 Norte 0 -- -- 20
2017-08-20 20:00:00 26 9 Norte 19 Norte 0 -- -- 21
2017-08-20 19:00:00 26.5 11 Nordeste 23 Norte 0 -- -- 22
2017-08-20 18:00:00 27.5 14 Norte 28 Norte 0 -- -- 22
2017-08-20 17:00:00 27.2 16 Nordeste 30 Nordeste 0 -- -- 23
2017-08-20 16:00:00 27.1 15 Nordeste 30 Nordeste 0 -- -- 23
2017-08-20 15:00:00 26.8 18 Nordeste 31 Este 0 -- -- 23
2017-08-20 14:00:00 27.1 8 Norte 20 Noroeste 0 -- -- 21
2017-08-20 13:00:00 24.4 11 Oeste 20 Oeste 0 -- -- 22
2017-08-20 12:00:00 22.7 9 Oeste 22 Oeste 0 -- -- 30
2017-08-20 11:00:00 20.2 14 Oeste 19 Oeste 0 -- -- 35
2017-08-20 10:00:00 17.8 13 Oeste 18 Oeste 0 -- -- 41
2017-08-20 09:00:00 16.2 13 Oeste 18 Oeste 0 -- -- 50
2017-08-20 08:00:00 15 12 Oeste 27 Oeste 0 -- -- 54
2017-08-20 07:00:00 15 17 Oeste 26 Oeste 0 -- -- 54
2017-08-20 06:00:00 15.4 19 Oeste 28 Oeste 0 -- -- 54
2017-08-20 05:00:00 16.2 16 Oeste 28 Oeste 0 -- -- 55
2017-08-20 04:00:00 16.9 18 Oeste 29 Oeste 0 -- -- 55
2017-08-20 03:00:00 17.6 19 Oeste 33 Oeste 0 -- -- 52
2017-08-20 02:00:00 18.1 24 Oeste 31 Oeste 0 -- -- 53
2017-08-20 01:00:00 19.3 21 Oeste 26 Oeste 0 -- -- 50
2017-08-20 00:00:00 21.2 18 Noroeste 33 Noroeste 0 -- -- 45
2017-08-19 23:00:00 22.6 23 Noroeste 32 Noroeste 0 -- -- 40
2017-08-19 22:00:00 23.9 13 Norte 17 Norte 0 -- -- 36
2017-08-19 21:00:00 25.1 11 Norte 20 Norte 0 -- -- 34
2017-08-19 20:00:00 26.2 12 Norte 22 Norte 0 -- -- 36
2017-08-19 19:00:00 26.8 11 Nordeste 26 Nordeste 0 -- -- 37
2017-08-19 18:00:00 27.6 9 Norte 27 Este 0 -- -- 37
2017-08-19 17:00:00 27.1 15 Nordeste 27 Nordeste 0 -- -- 38
2017-08-19 16:00:00 26.7 18 Este 30 Nordeste 0 -- -- 39
2017-08-19 15:00:00 26.7 9 Nordeste 22 Nordeste 0 -- -- 39
2017-08-19 14:00:00 25.7 10 Nordeste 23 Este 0 -- -- 43
2017-08-19 13:00:00 25 11 Este 23 Norte 0 -- -- 45
2017-08-19 12:00:00 23.6 7 Norte 19 Nordeste 0 -- -- 49
2017-08-19 11:00:00 21.6 8 Norte 24 Oeste 0 -- -- 54
2017-08-19 10:00:00 19.1 19 Oeste 33 Oeste 0 -- -- 61
2017-08-19 09:00:00 17.5 24 Oeste 30 Oeste 0 -- -- 67
2017-08-19 08:00:00 16.7 21 Oeste 28 Oeste 0 -- -- 70
2017-08-19 07:00:00 16.5 21 Oeste 34 Oeste 0 -- -- 71
2017-08-19 06:00:00 17 23 Oeste 31 Oeste 0 -- -- 69
2017-08-19 05:00:00 17.8 27 Oeste 34 Oeste 0 -- -- 65
2017-08-19 04:00:00 18.2 31 Oeste 43 Oeste 0 -- -- 62
2017-08-19 03:00:00 18.5 35 Oeste 42 Oeste 0 -- -- 62
2017-08-19 02:00:00 19 29 Oeste 36 Oeste 0 -- -- 65
2017-08-19 01:00:00 19.6 24 Oeste 32 Oeste 0 -- -- 67
2017-08-19 00:00:00 20.5 23 Oeste 32 Oeste 0 -- -- 64
2017-08-18 23:00:00 21.5 19 Oeste 35 Noroeste 0 -- -- 60
2017-08-18 22:00:00 22.6 26 Noroeste 46 Noroeste 0 -- -- 55
2017-08-18 21:00:00 23.9 40 Noroeste 53 Noroeste 0 -- -- 52
2017-08-18 20:00:00 26.9 33 Noroeste 45 Noroeste 0 -- -- 48
2017-08-18 19:00:00 30 20 Noroeste 29 Noroeste 0 -- -- 42
2017-08-18 18:00:00 30.9 18 Norte 32 Norte 0 -- -- 40
2017-08-18 17:00:00 31.2 20 Norte 46 Norte 0 -- -- 41
2017-08-18 16:00:00 31.8 24 Norte 39 Nordeste 0 -- -- 41
2017-08-18 15:00:00 32.3 22 Nordeste 31 Nordeste 0 -- -- 38
2017-08-18 14:00:00 30.9 18 Este 26 Este 0 -- -- 42
2017-08-18 13:00:00 30.1 13 Este 27 Este 0 -- -- 45
2017-08-18 12:00:00 29.2 9 Nordeste 24 Norte 0 -- -- 47
2017-08-18 11:00:00 27.4 14 Nordeste 25 Nordeste 0 -- -- 56
2017-08-18 10:00:00 25.7 9 Este 13 Este 0 -- -- 57
2017-08-18 09:00:00 24.2 8 Este 12 Este 0 -- -- 58
2017-08-18 08:00:00 22.7 3 Norte 10 Sudeste 0 -- -- 62
2017-08-18 07:00:00 22.6 6 Este 7 Este 0 -- -- 64
2017-08-18 06:00:00 23.5 4 Sur 13 Sudoeste 0 -- -- 59
2017-08-18 05:00:00 24.1 6 Sudoeste 15 Oeste 0 -- -- 57
2017-08-18 04:00:00 24.2 14 Sudoeste 32 Oeste 0 -- -- 57
2017-08-18 03:00:00 23.4 13 Sudoeste 22 Sudoeste 0 -- -- 60
2017-08-18 02:00:00 23.5 15 Sudoeste 26 Sur 0 -- -- 61
2017-08-18 01:00:00 24.6 18 Sur 26 Sur 0 -- -- 58
2017-08-18 00:00:00 25.8 21 Sur 26 Sur 0 -- -- 54
2017-08-17 23:00:00 26.5 17 Sur 24 Sur 0 -- -- 52
2017-08-17 22:00:00 27.3 12 Sudeste 21 Sur 0 -- -- 49
2017-08-17 21:00:00 29.3 15 Sur 28 Este 0 -- -- 43
2017-08-17 20:00:00 31 24 Este 33 Este 0 -- -- 30
2017-08-17 19:00:00 31.8 24 Este 32 Este 0 -- -- 26
2017-08-17 18:00:00 32.1 18 Este 27 Este 0 -- -- 29
2017-08-17 17:00:00 31.7 15 Este 29 Nordeste 0 -- -- 28
2017-08-17 16:00:00 31.4 14 Este 30 Este 0 -- -- 26
2017-08-17 15:00:00 31.1 11 Este 22 Este 0 -- -- 25
2017-08-17 14:00:00 30.2 9 Este 22 Este 0 -- -- 24
2017-08-17 13:00:00 28.9 9 Este 20 Este 0 -- -- 23
2017-08-17 12:00:00 28.4 10 Este 16 Nordeste 0 -- -- 22
2017-08-17 11:00:00 26.6 8 Este 13 Este 0 -- -- 23
2017-08-17 10:00:00 23.3 4 Oeste 9 Oeste 0 -- -- 28
2017-08-17 09:00:00 20.5 9 Oeste 13 Oeste 0 -- -- 36
2017-08-17 08:00:00 18.7 12 Oeste 22 Oeste 0 -- -- 42
2017-08-17 07:00:00 18.7 14 Oeste 18 Oeste 0 -- -- 41
2017-08-17 06:00:00 18.5 15 Sudoeste 21 Sudoeste 0 -- -- 43
2017-08-17 05:00:00 19.4 14 Oeste 21 Oeste 0 -- -- 43
2017-08-17 04:00:00 20.4 21 Oeste 27 Oeste 0 -- -- 40
2017-08-17 03:00:00 20.4 19 Oeste 24 Oeste 0 -- -- 47
2017-08-17 02:00:00 20.9 20 Oeste 27 Oeste 0 -- -- 48
2017-08-17 01:00:00 22.9 21 Oeste 35 Noroeste 0 -- -- 53
2017-08-17 00:00:00 23.8 23 Noroeste 31 Noroeste 0 -- -- 48
2017-08-16 23:00:00 25.5 19 Noroeste 26 Noroeste 0 -- -- 47
2017-08-16 22:00:00 26.4 7 Norte 9 Norte 0 -- -- 43
2017-08-16 21:00:00 27.1 6 Norte 14 Nordeste 0 -- -- 43
2017-08-16 20:00:00 27.7 10 Nordeste 21 Este 0 -- -- 40
2017-08-16 19:00:00 28.2 12 Nordeste 27 Nordeste 0 -- -- 40
2017-08-16 18:00:00 28.4 12 Nordeste 22 Nordeste 0 -- -- 44
2017-08-16 17:00:00 28.4 11 Nordeste 25 Nordeste 0 -- -- 46
2017-08-16 16:00:00 27.7 12 Nordeste 27 Nordeste 0 -- -- 49
2017-08-16 15:00:00 27.7 10 Nordeste 21 Nordeste 0 -- -- 49
2017-08-16 14:00:00 26.2 10 Este 19 Nordeste 0 -- -- 56
2017-08-16 13:00:00 25.1 8 Este 18 Este 0 -- -- 59
2017-08-16 12:00:00 24.2 10 Este 17 Nordeste 0 -- -- 63
2017-08-16 11:00:00 22.8 6 Nordeste 12 Norte 0 -- -- 68
2017-08-16 10:00:00 20 5 Oeste 10 Oeste 0 -- -- 76
2017-08-16 09:00:00 18.4 9 Oeste 15 Oeste 0 -- -- 82
2017-08-16 08:00:00 17.1 12 Oeste 14 Oeste 0 -- -- 88
2017-08-16 07:00:00 17.4 7 Oeste 11 Oeste 0 -- -- 89
2017-08-16 06:00:00 17.9 10 Oeste 17 Noroeste 0 -- -- 88
2017-08-16 05:00:00 18.3 11 Noroeste 21 Noroeste 0 -- -- 89
2017-08-16 04:00:00 19.1 16 Noroeste 23 Oeste 0 -- -- 84
2017-08-16 03:00:00 20.2 11 Oeste 25 Oeste 0 -- -- 71
2017-08-16 02:00:00 21.7 9 Sudoeste 13 Este 0 -- -- 63
2017-08-16 01:00:00 22.2 12 Este 18 Este 0 -- -- 61
2017-08-16 00:00:00 22.4 14 Este 19 Este 0 -- -- 59
2017-08-15 23:00:00 23.6 7 Este 26 Sudoeste 0 -- -- 57
2017-08-15 22:00:00 23.1 22 Sudoeste 33 Sur 0 -- -- 59
2017-08-15 21:00:00 22.7 26 Sudoeste 48 Sur 0 -- -- 63
2017-08-15 20:00:00 23.4 33 Sur 48 Sur 0 -- -- 59
2017-08-15 19:00:00 24 14 Sur 31 Sudoeste 0 -- -- 61
2017-08-15 18:00:00 21.8 23 Sudoeste 34 Sudoeste 2 -- -- 78
2017-08-15 17:00:00 24.2 14 Oeste 29 Sudoeste 0.2 -- -- 67
2017-08-15 16:00:00 27.7 11 Este 28 Este 0 -- -- 43
2017-08-15 15:00:00 27.8 13 Este 31 Este 0 -- -- 44
2017-08-15 14:00:00 29.3 19 Este 31 Este 0 -- -- 34
2017-08-15 13:00:00 27.5 20 Este 31 Este 0 -- -- 40
2017-08-15 12:00:00 25.7 15 Nordeste 24 Nordeste 0 -- -- 46
2017-08-15 11:00:00 25.5 13 Este 19 Este 0 -- -- 38
2017-08-15 10:00:00 24 9 Este 16 Este 0 -- -- 43
2017-08-15 09:00:00 20.3 6 Sudoeste 10 Oeste 0 -- -- 59
2017-08-15 08:00:00 18.7 8 Oeste 13 Oeste 0 -- -- 63
2017-08-15 07:00:00 18.3 9 Oeste 14 Oeste 0 -- -- 61
2017-08-15 06:00:00 18.6 7 Oeste 15 Oeste 0 -- -- 58
2017-08-15 05:00:00 20.1 0 Calma 9 Nordeste 0 -- -- 49
2017-08-15 04:00:00 21.1 9 Este 13 Este 0 -- -- 45
2017-08-15 03:00:00 22.1 4 Este 24 Sur 0 -- -- 39
2017-08-15 02:00:00 21.8 6 Sudoeste 31 Sur 0 -- -- 41
2017-08-15 01:00:00 22.9 20 Sur 35 Sur 0 -- -- 39
2017-08-15 00:00:00 23.8 20 Sur 32 Sur 0 -- -- 39
2017-08-14 23:00:00 24.5 17 Sur 35 Sur 0 -- -- 38
2017-08-14 22:00:00 25.1 22 Sur 37 Sur 0 -- -- 39
2017-08-14 21:00:00 25.8 23 Sudeste 41 Sur 0 -- -- 40
2017-08-14 20:00:00 27.2 23 Sudeste 43 Sudeste 0 -- -- 36
2017-08-14 19:00:00 28.5 24 Este 40 Sudeste 0 -- -- 35
2017-08-14 18:00:00 29.5 26 Este 44 Este 0 -- -- 35
2017-08-14 17:00:00 31 26 Este 46 Este 0 -- -- 32
2017-08-14 16:00:00 31.6 24 Este 42 Este 0 -- -- 27
2017-08-14 15:00:00 30.7 28 Este 39 Este 0 -- -- 28
2017-08-14 14:00:00 29.9 22 Este 35 Este 0 -- -- 29
2017-08-14 13:00:00 28.9 19 Este 28 Este 0 -- -- 32
2017-08-14 12:00:00 27.4 15 Este 27 Este 0 -- -- 33
2017-08-14 11:00:00 25.8 12 Este 17 Este 0 -- -- 36
2017-08-14 10:00:00 24.7 6 Este 12 Nordeste 0 -- -- 45
2017-08-14 09:00:00 21.7 5 Este 8 Este 0 -- -- 51
2017-08-14 08:00:00 19.5 3 Noroeste 11 Oeste 0 -- -- 57
2017-08-14 07:00:00 19.7 5 Este 8 Sudeste 0 -- -- 54
2017-08-14 06:00:00 20.3 5 Oeste 11 Sur 0 -- -- 50
2017-08-14 05:00:00 19.9 9 Sur 14 Sur 0 -- -- 52
2017-08-14 04:00:00 20.2 9 Sudoeste 14 Sudoeste 0 -- -- 55
2017-08-14 03:00:00 21.1 5 Este 9 Este 0 -- -- 53
2017-08-14 02:00:00 20.1 10 Sudoeste 25 Sur 0 -- -- 58
2017-08-14 01:00:00 21.6 17 Sur 27 Sur 0 -- -- 55
2017-08-14 00:00:00 22.9 18 Sur 29 Sur 0 -- -- 51
2017-08-13 23:00:00 23.7 16 Sudeste 29 Sur 0 -- -- 48
2017-08-13 22:00:00 24.5 19 Sur 28 Sur 0 -- -- 49
2017-08-13 21:00:00 25.2 14 Sur 32 Sur 0 -- -- 52
2017-08-13 20:00:00 26.5 21 Sudeste 36 Este 0 -- -- 48
2017-08-13 19:00:00 28.3 29 Este 42 Este 0 -- -- 42
2017-08-13 18:00:00 28.7 26 Este 41 Nordeste 0 -- -- 32
2017-08-13 17:00:00 28.6 26 Este 39 Este 0 -- -- 30
2017-08-13 16:00:00 28.3 22 Este 35 Este 0 -- -- 31
2017-08-13 15:00:00 27.3 19 Este 32 Este 0 -- -- 33
2017-08-13 14:00:00 26.1 16 Este 29 Este 0 -- -- 35
2017-08-13 13:00:00 25.3 16 Este 27 Este 0 -- -- 36
2017-08-13 12:00:00 24.4 10 Nordeste 20 Nordeste 0 -- -- 38
2017-08-13 11:00:00 23.9 10 Nordeste 16 Este 0 -- -- 39
2017-08-13 10:00:00 21.1 4 Noroeste 8 Norte 0 -- -- 44
2017-08-13 09:00:00 18.5 7 Sudoeste 10 Sudoeste 0 -- -- 49
2017-08-13 08:00:00 17.4 9 Oeste 11 Noroeste 0 -- -- 51
2017-08-13 07:00:00 16.9 7 Sudoeste 13 Oeste 0 -- -- 47
2017-08-13 06:00:00 16.5 12 Oeste 14 Oeste 0 -- -- 43
2017-08-13 05:00:00 17.4 10 Oeste 13 Oeste 0 -- -- 40
2017-08-13 04:00:00 18.2 8 Noroeste 18 Noroeste 0 -- -- 45
2017-08-13 03:00:00 18.5 18 Oeste 27 Noroeste 0 -- -- 34
2017-08-13 02:00:00 20.2 11 Oeste 17 Oeste 0 -- -- 30
2017-08-13 01:00:00 21.8 7 Sudoeste 12 Sudoeste 0 -- -- 29
2017-08-13 00:00:00 21.8 10 Sudoeste 13 Sur 0 -- -- 28
2017-08-12 23:00:00 23.3 8 Sudeste 10 Sudeste 0 -- -- 26
2017-08-12 22:00:00 23.8 5 Este 8 Norte 0 -- -- 25
2017-08-12 21:00:00 24.4 7 Norte 17 Norte 0 -- -- 24
2017-08-12 20:00:00 25.4 10 Nordeste 21 Nordeste 0 -- -- 22
2017-08-12 19:00:00 25.7 9 Norte 23 Norte 0 -- -- 23
2017-08-12 18:00:00 25.7 16 Nordeste 24 Norte 0 -- -- 24
2017-08-12 17:00:00 26.6 14 Norte 26 Noroeste 0 -- -- 24
2017-08-12 16:00:00 26.1 15 Norte 31 Nordeste 0 -- -- 23
2017-08-12 15:00:00 25.4 12 Nordeste 22 Este 0 -- -- 23
2017-08-12 14:00:00 24.3 12 Norte 24 Noroeste 0 -- -- 24
2017-08-12 13:00:00 24 12 Norte 26 Noroeste 0 -- -- 25
2017-08-12 12:00:00 22.2 11 Norte 27 Noroeste 0 -- -- 27
2017-08-12 11:00:00 20.8 15 Norte 30 Oeste 0 -- -- 29
2017-08-12 10:00:00 17.8 21 Oeste 30 Oeste 0 -- -- 37
2017-08-12 09:00:00 15.1 15 Noroeste 26 Oeste 0 -- -- 49
2017-08-12 08:00:00 13.3 9 Oeste 26 Noroeste 0 -- -- 54
2017-08-12 07:00:00 12.9 7 Sudoeste 30 Oeste 0 -- -- 54
2017-08-12 06:00:00 13.6 21 Oeste 36 Oeste 0 -- -- 51
2017-08-12 05:00:00 13.6 25 Oeste 36 Oeste 0 -- -- 52
2017-08-12 04:00:00 14 26 Oeste 35 Oeste 0 -- -- 51
2017-08-12 03:00:00 14.7 28 Oeste 35 Oeste 0 -- -- 52
2017-08-12 02:00:00 15.3 27 Oeste 37 Oeste 0 -- -- 50
2017-08-12 01:00:00 15.7 25 Oeste 43 Oeste 0 -- -- 51
2017-08-12 00:00:00 16.3 25 Oeste 35 Oeste 0 -- -- 53
2017-08-11 23:00:00 17.3 24 Oeste 41 Oeste 0 -- -- 48
2017-08-11 22:00:00 18.7 26 Oeste 31 Oeste 0 -- -- 40
2017-08-11 21:00:00 20.5 21 Noroeste 34 Noroeste 0 -- -- 35
2017-08-11 20:00:00 22.8 29 Noroeste 38 Noroeste 0 -- -- 30
2017-08-11 19:00:00 24 24 Noroeste 39 Noroeste 0 -- -- 29
2017-08-11 18:00:00 24.3 22 Noroeste 38 Noroeste 0 -- -- 27
2017-08-11 17:00:00 23.8 22 Noroeste 39 Noroeste 0 -- -- 28
2017-08-11 16:00:00 23.1 20 Noroeste 39 Noroeste 0 -- -- 30
2017-08-11 15:00:00 22.3 22 Noroeste 40 Noroeste 0 -- -- 30
2017-08-11 14:00:00 21.3 24 Noroeste 41 Noroeste 0 -- -- 34
2017-08-11 13:00:00 19.4 27 Noroeste 45 Noroeste 0 -- -- 38
2017-08-11 12:00:00 17.7 33 Noroeste 50 Noroeste 0 -- -- 44
2017-08-11 11:00:00 15.8 29 Oeste 41 Oeste 0 -- -- 50
2017-08-11 10:00:00 14.2 33 Noroeste 42 Oeste 0 -- -- 55
2017-08-11 09:00:00 12.1 28 Oeste 40 Oeste 0 -- -- 63
2017-08-11 08:00:00 11 29 Oeste 34 Oeste 0 -- -- 66
2017-08-11 07:00:00 10.6 23 Oeste 28 Oeste 0 -- -- 67
2017-08-11 06:00:00 11.2 17 Oeste 62 Oeste 0 -- -- 63
2017-08-11 05:00:00 11.5 51 Oeste 68 Oeste 0 -- -- 62
2017-08-11 04:00:00 11.6 47 Oeste 59 Oeste 0 -- -- 65
2017-08-11 03:00:00 11.9 43 Oeste 54 Oeste 0 -- -- 69
2017-08-11 02:00:00 12.4 43 Oeste 53 Oeste 0 -- -- 69
2017-08-11 01:00:00 13.2 35 Oeste 54 Oeste 0 -- -- 63
2017-08-11 00:00:00 14 32 Oeste 52 Oeste 0 -- -- 63
2017-08-10 23:00:00 14.6 35 Oeste 49 Noroeste 0 -- -- 65
2017-08-10 22:00:00 15.6 27 Noroeste 44 Noroeste 0 -- -- 64
2017-08-10 21:00:00 17.3 27 Noroeste 52 Noroeste 0 -- -- 57
2017-08-10 20:00:00 19.3 39 Noroeste 59 Noroeste 0 -- -- 50
2017-08-10 19:00:00 20.7 40 Noroeste 56 Noroeste 0 -- -- 44
2017-08-10 18:00:00 21.1 32 Noroeste 50 Noroeste 0 -- -- 44
2017-08-10 17:00:00 21.2 35 Noroeste 51 Noroeste 0 -- -- 42
2017-08-10 16:00:00 21.4 33 Noroeste 52 Noroeste 0 -- -- 43
2017-08-10 15:00:00 20.8 33 Noroeste 56 Noroeste 0 -- -- 44
2017-08-10 14:00:00 20.2 30 Noroeste 49 Noroeste 0 -- -- 45
2017-08-10 13:00:00 18.9 31 Noroeste 52 Noroeste 0 -- -- 47
2017-08-10 12:00:00 17.1 29 Noroeste 49 Oeste 0 -- -- 50
2017-08-10 11:00:00 15.6 34 Oeste 48 Oeste 0 -- -- 57
2017-08-10 10:00:00 14.2 33 Noroeste 48 Oeste 0 -- -- 62
2017-08-10 09:00:00 12.6 20 Oeste 36 Oeste 0 -- -- 70
2017-08-10 08:00:00 10.8 24 Oeste 41 Oeste 0 -- -- 75
2017-08-10 07:00:00 10.6 30 Oeste 40 Oeste 0 -- -- 76
2017-08-10 06:00:00 10.3 21 Oeste 32 Oeste 0 -- -- 75
2017-08-10 05:00:00 10.6 22 Oeste 43 Oeste 0 -- -- 75
2017-08-10 04:00:00 10.8 34 Oeste 46 Oeste 0 -- -- 74
2017-08-10 03:00:00 12 33 Oeste 42 Oeste 0 -- -- 67
2017-08-10 02:00:00 12.5 31 Oeste 48 Oeste 0 -- -- 65
2017-08-10 01:00:00 13.4 35 Oeste 53 Oeste 0 -- -- 59
2017-08-10 00:00:00 13.7 28 Oeste 41 Oeste 0 -- -- 59
2017-08-09 23:00:00 14.3 30 Noroeste 49 Noroeste 0 -- -- 58
2017-08-09 22:00:00 15 29 Noroeste 43 Noroeste 0 -- -- 56
2017-08-09 21:00:00 15 27 Noroeste 40 Oeste 0 -- -- 56
2017-08-09 20:00:00 14.8 29 Noroeste 50 Noroeste 0 -- -- 60
2017-08-09 19:00:00 16.1 39 Noroeste 51 Noroeste 0 -- -- 60
2017-08-09 18:00:00 17.5 33 Noroeste 42 Noroeste 0 -- -- 53
2017-08-09 17:00:00 19 27 Noroeste 44 Noroeste 0 -- -- 50
2017-08-09 16:00:00 20.1 22 Noroeste 34 Norte 0 -- -- 47
2017-08-09 15:00:00 20.6 21 Noroeste 33 Noroeste 0 -- -- 46
2017-08-09 14:00:00 20.3 13 Norte 28 Nordeste 0 -- -- 48
2017-08-09 13:00:00 18.9 16 Nordeste 26 Nordeste 0 -- -- 51
2017-08-09 12:00:00 17.7 8 Norte 14 Norte 0 -- -- 54
2017-08-09 11:00:00 16.6 6 Oeste 19 Oeste 0 -- -- 57
2017-08-09 10:00:00 15.8 13 Oeste 19 Oeste 0 -- -- 59
2017-08-09 09:00:00 13.6 15 Oeste 21 Oeste 0 -- -- 67
2017-08-09 08:00:00 12.2 12 Oeste 19 Oeste 0 -- -- 71
2017-08-09 07:00:00 12.4 14 Oeste 22 Oeste 0 -- -- 70
2017-08-09 06:00:00 12.7 16 Oeste 21 Oeste 0 -- -- 70
2017-08-09 05:00:00 13.3 14 Oeste 19 Oeste 0 -- -- 68
2017-08-09 04:00:00 13.5 18 Oeste 22 Oeste 0 -- -- 69
2017-08-09 03:00:00 14.5 18 Oeste 25 Oeste 0 -- -- 65
2017-08-09 02:00:00 15.1 19 Oeste 24 Oeste 0 -- -- 63
2017-08-09 01:00:00 15.7 17 Oeste 25 Oeste 0 -- -- 58
2017-08-09 00:00:00 16.8 14 Noroeste 23 Noroeste 0 -- -- 54
2017-08-08 23:00:00 17.7 13 Noroeste 19 Noroeste 0 -- -- 50
2017-08-08 22:00:00 18.7 15 Noroeste 26 Noroeste 0 -- -- 44
2017-08-08 21:00:00 20.6 19 Noroeste 39 Noroeste 0 -- -- 40
2017-08-08 20:00:00 22.2 27 Noroeste 53 Noroeste 0 -- -- 37
2017-08-08 19:00:00 23.3 36 Noroeste 53 Noroeste 0 -- -- 33
2017-08-08 18:00:00 24.3 38 Noroeste 63 Noroeste 0 -- -- 34
2017-08-08 17:00:00 25.2 31 Noroeste 50 Noroeste 0 -- -- 34
2017-08-08 16:00:00 25 27 Noroeste 48 Noroeste 0 -- -- 33
2017-08-08 15:00:00 23.8 29 Noroeste 45 Oeste 0 -- -- 35
2017-08-08 14:00:00 22.9 30 Noroeste 42 Oeste 0 -- -- 37
2017-08-08 13:00:00 21.5 33 Noroeste 50 Noroeste 0 -- -- 45
2017-08-08 12:00:00 20.9 32 Noroeste 44 Noroeste 0 -- -- 49
2017-08-08 11:00:00 19.5 29 Noroeste 43 Oeste 0 -- -- 55
2017-08-08 10:00:00 17.8 25 Oeste 35 Oeste 0 -- -- 65
2017-08-08 09:00:00 16.4 28 Oeste 36 Oeste 0 -- -- 72
2017-08-08 08:00:00 15.5 24 Oeste 39 Oeste 0 -- -- 79
2017-08-08 07:00:00 15.6 28 Oeste 36 Oeste 0 -- -- 81
2017-08-08 06:00:00 16.4 26 Oeste 40 Oeste 0 -- -- 79
2017-08-08 05:00:00 17.6 35 Oeste 56 Oeste 0 -- -- 76
2017-08-08 04:00:00 19.2 44 Oeste 55 Oeste 0 -- -- 74
2017-08-08 03:00:00 20.9 39 Noroeste 59 Noroeste 0 -- -- 73
2017-08-08 02:00:00 28 28 Oeste 37 Oeste 0 -- -- 37
2017-08-08 01:00:00 28.1 28 Sudoeste 38 Sudoeste 0 -- -- 40
2017-08-08 00:00:00 27.5 22 Sudoeste 32 Sudoeste 0 -- -- 45
2017-08-07 23:00:00 27.5 12 Sur 28 Sur 0 -- -- 53
2017-08-07 22:00:00 26.9 18 Sudeste 32 Sudeste 0 -- -- 60
2017-08-07 21:00:00 27.5 14 Sudeste 39 Sudeste 0 -- -- 58
2017-08-07 20:00:00 29.2 19 Sudeste 35 Este 0 -- -- 53
2017-08-07 19:00:00 30.8 21 Este 49 Este 0 -- -- 48
2017-08-07 18:00:00 30.2 29 Este 50 Este 0 -- -- 52
2017-08-07 17:00:00 32.3 14 Este 32 Este 0 -- -- 40
2017-08-07 16:00:00 32.3 10 Este 40 Este 0 -- -- 39
2017-08-07 15:00:00 31.5 22 Este 36 Este 0 -- -- 41
2017-08-07 14:00:00 30.1 22 Este 34 Este 0 -- -- 44
2017-08-07 13:00:00 28.8 20 Este 34 Este 0 -- -- 49
2017-08-07 12:00:00 27.2 18 Este 30 Este 0 -- -- 53
2017-08-07 11:00:00 25.1 15 Este 23 Este 0 -- -- 59
2017-08-07 10:00:00 23 13 Este 19 Este 0 -- -- 64
2017-08-07 09:00:00 21.2 10 Este 14 Este 0 -- -- 66
2017-08-07 08:00:00 19.6 7 Este 9 Este 0 -- -- 78
2017-08-07 07:00:00 19.3 0 Calma 7 Noroeste 0 -- -- 86
2017-08-07 06:00:00 19.4 4 Norte 10 Norte 0 -- -- 84
2017-08-07 05:00:00 19.4 6 Noroeste 14 Noroeste 0 -- -- 82
2017-08-07 04:00:00 20.3 9 Noroeste 15 Noroeste 0 -- -- 67
2017-08-07 03:00:00 21.2 10 Oeste 16 Noroeste 0 -- -- 66
2017-08-07 02:00:00 21.9 4 Oeste 11 Oeste 0 -- -- 64
2017-08-07 01:00:00 21.9 7 Sudoeste 18 Sur 0 -- -- 76
2017-08-07 00:00:00 22.9 11 Sur 21 Sudeste 0 -- -- 73
2017-08-06 23:00:00 23.2 10 Sudeste 23 Sudeste 0 -- -- 73
2017-08-06 22:00:00 23.9 11 Este 26 Este 0 -- -- 69
2017-08-06 21:00:00 25.6 16 Este 29 Este 0 -- -- 52
2017-08-06 20:00:00 26.3 19 Este 30 Nordeste 0 -- -- 48
2017-08-06 19:00:00 26.7 22 Nordeste 36 Nordeste 0 -- -- 46
2017-08-06 18:00:00 26.6 27 Este 40 Este 0 -- -- 47
2017-08-06 17:00:00 26.9 22 Este 41 Nordeste 0 -- -- 47
2017-08-06 16:00:00 26.5 18 Nordeste 33 Este 0 -- -- 45
2017-08-06 15:00:00 26 15 Nordeste 23 Nordeste 0 -- -- 46
2017-08-06 14:00:00 23.9 7 Nordeste 20 Este 0 -- -- 51
2017-08-06 13:00:00 23.3 7 Norte 17 Este 0 -- -- 52
2017-08-06 12:00:00 21.4 5 Noroeste 18 Oeste 0 -- -- 56
2017-08-06 11:00:00 19.4 10 Oeste 23 Oeste 0 -- -- 62
2017-08-06 10:00:00 17.7 18 Oeste 26 Oeste 0 -- -- 68
2017-08-06 09:00:00 16.4 19 Oeste 26 Oeste 0 -- -- 75
2017-08-06 08:00:00 15.3 17 Oeste 23 Oeste 0 -- -- 79
2017-08-06 07:00:00 15.2 17 Oeste 29 Oeste 0 -- -- 80
2017-08-06 06:00:00 15.7 18 Oeste 27 Oeste 0 -- -- 77
2017-08-06 05:00:00 16.1 23 Oeste 35 Oeste 0 -- -- 76
2017-08-06 04:00:00 16.6 22 Oeste 34 Oeste 0 -- -- 75
2017-08-06 03:00:00 17.3 26 Oeste 35 Oeste 0 -- -- 72
2017-08-06 02:00:00 18.1 25 Oeste 33 Oeste 0 -- -- 71
2017-08-06 01:00:00 18.9 24 Oeste 36 Oeste 0 -- -- 69
2017-08-06 00:00:00 20.4 26 Oeste 33 Oeste 0 -- -- 65
2017-08-05 23:00:00 22.2 24 Noroeste 31 Norte 0 -- -- 60
2017-08-05 22:00:00 24.2 26 Noroeste 40 Noroeste 0 -- -- 55
2017-08-05 21:00:00 27.7 28 Noroeste 36 Noroeste 0 -- -- 48
2017-08-05 20:00:00 31.6 13 Sudoeste 32 Sur 0 -- -- 31
2017-08-05 19:00:00 31 8 Este 19 Este 0 -- -- 41
2017-08-05 18:00:00 31.4 8 Norte 23 Nordeste 0 -- -- 43
2017-08-05 17:00:00 30.8 10 Norte 23 Noroeste 0 -- -- 44
2017-08-05 16:00:00 32.9 15 Norte 28 Nordeste 0 -- -- 39
2017-08-05 15:00:00 31.6 17 Nordeste 31 Nordeste 0 -- -- 41
2017-08-05 14:00:00 31.6 13 Norte 26 Norte 0 -- -- 41
2017-08-05 13:00:00 30.4 15 Norte 25 Norte 0 -- -- 44
2017-08-05 12:00:00 29.6 15 Nordeste 24 Nordeste 0 -- -- 47
2017-08-05 11:00:00 28.5 13 Nordeste 22 Nordeste 0 -- -- 48
2017-08-05 10:00:00 27.6 10 Nordeste 14 Nordeste 0 -- -- 50
2017-08-05 09:00:00 26.5 6 Este 10 Este 0 -- -- 52
2017-08-05 08:00:00 25.1 5 Este 8 Este 0 -- -- 54
2017-08-05 07:00:00 24.8 4 Este 7 Este 0 -- -- 54
2017-08-05 06:00:00 25.3 5 Este 13 Este 0 -- -- 51
2017-08-05 05:00:00 25.5 10 Este 12 Este 0 -- -- 50
2017-08-05 04:00:00 27.4 5 Nordeste 10 Norte 0 -- -- 45
2017-08-05 03:00:00 27.9 4 Noroeste 14 Oeste 0 -- -- 42
2017-08-05 02:00:00 27.8 11 Oeste 13 Oeste 0 -- -- 42
2017-08-05 01:00:00 29 8 Noroeste 14 Noroeste 0 -- -- 40
2017-08-05 00:00:00 29.5 10 Sur 13 Sur 0 -- -- 37
2017-08-04 23:00:00 30.6 3 Sur 8 Norte 0 -- -- 35
2017-08-04 22:00:00 30.7 8 Nordeste 13 Nordeste 0 -- -- 35
2017-08-04 21:00:00 31.3 12 Nordeste 19 Nordeste 0 -- -- 34
2017-08-04 20:00:00 32.1 12 Nordeste 26 Nordeste 0 -- -- 33
2017-08-04 19:00:00 32.8 15 Nordeste 29 Nordeste 0 -- -- 32
2017-08-04 18:00:00 33.6 17 Nordeste 35 Norte 0 -- -- 31
2017-08-04 17:00:00 33.8 19 Nordeste 32 Norte 0 -- -- 32
2017-08-04 16:00:00 33.6 16 Nordeste 31 Nordeste 0 -- -- 32
2017-08-04 15:00:00 33.8 14 Norte 31 Nordeste 0 -- -- 31
2017-08-04 14:00:00 33.1 14 Nordeste 26 Nordeste 0 -- -- 32
2017-08-04 13:00:00 31.6 13 Nordeste 21 Nordeste 0 -- -- 37
2017-08-04 12:00:00 31.3 5 Norte 15 Nordeste 0 -- -- 39
2017-08-04 11:00:00 29.7 6 Nordeste 17 Este 0 -- -- 43
2017-08-04 10:00:00 25.9 5 Oeste 13 Oeste 0 -- -- 52
2017-08-04 09:00:00 23.5 8 Sudoeste 14 Sudoeste 0 -- -- 60
2017-08-04 08:00:00 21.4 13 Oeste 20 Oeste 0 -- -- 65
2017-08-04 07:00:00 21.5 19 Oeste 22 Oeste 0 -- -- 63
2017-08-04 06:00:00 22.4 15 Oeste 19 Oeste 0 -- -- 57
2017-08-04 05:00:00 24.6 14 Oeste 19 Oeste 0 -- -- 51
2017-08-04 04:00:00 25.1 11 Oeste 21 Oeste 0 -- -- 50
2017-08-04 03:00:00 25.8 16 Oeste 22 Noroeste 0 -- -- 47
2017-08-04 02:00:00 25.9 10 Sudoeste 17 Sudoeste 0 -- -- 50
2017-08-04 01:00:00 27 13 Sudoeste 19 Sur 0 -- -- 47
2017-08-04 00:00:00 27.8 15 Sur 21 Sur 0 -- -- 45
2017-08-03 23:00:00 28.7 14 Sur 22 Sur 0 -- -- 42
2017-08-03 22:00:00 29.9 14 Sur 24 Sudeste 0 -- -- 39
2017-08-03 21:00:00 31.7 11 Este 23 Este 0 -- -- 28
2017-08-03 20:00:00 32.7 15 Nordeste 22 Nordeste 0 -- -- 27
2017-08-03 19:00:00 33.6 9 Nordeste 28 Nordeste 0 -- -- 26
2017-08-03 18:00:00 33.8 14 Nordeste 23 Nordeste 0 -- -- 26
2017-08-03 17:00:00 34.1 12 Nordeste 27 Nordeste 0 -- -- 25
2017-08-03 16:00:00 34.3 13 Nordeste 26 Nordeste 0 -- -- 25
2017-08-03 15:00:00 33.6 20 Nordeste 36 Nordeste 0 -- -- 26
2017-08-03 14:00:00 32.6 21 Nordeste 35 Nordeste 0 -- -- 32
2017-08-03 13:00:00 32.7 18 Nordeste 27 Nordeste 0 -- -- 33
2017-08-03 12:00:00 31 9 Noroeste 21 Noroeste 0 -- -- 33
2017-08-03 11:00:00 29.3 14 Oeste 22 Oeste 0 -- -- 39
2017-08-03 10:00:00 26.7 17 Oeste 24 Oeste 0 -- -- 45
2017-08-03 09:00:00 23.4 20 Oeste 24 Oeste 0 -- -- 52
2017-08-03 08:00:00 22 15 Sudoeste 19 Oeste 0 -- -- 54
2017-08-03 07:00:00 25.1 5 Oeste 13 Sudeste 0 -- -- 45
2017-08-03 06:00:00 24.9 8 Sudeste 13 Sudeste 0 -- -- 45
2017-08-03 05:00:00 24.6 6 Norte 15 Noroeste 0 -- -- 47
2017-08-03 04:00:00 23.9 13 Noroeste 22 Oeste 0 -- -- 48
2017-08-03 03:00:00 24 18 Sudoeste 22 Sudoeste 0 -- -- 48
2017-08-03 02:00:00 24 17 Sudoeste 24 Sur 0 -- -- 48
2017-08-03 01:00:00 24.8 18 Sur 23 Sur 0 -- -- 46
2017-08-03 00:00:00 25.6 11 Sudoeste 22 Sur 0 -- -- 43
2017-08-02 23:00:00 27 15 Sur 22 Sur 0 -- -- 40
2017-08-02 22:00:00 27.8 10 Sur 18 Sur 0 -- -- 46
2017-08-02 21:00:00 28.8 8 Sur 26 Sur 0 -- -- 46
2017-08-02 20:00:00 29.7 13 Sudeste 25 Sudeste 0 -- -- 42
2017-08-02 19:00:00 30 14 Sudeste 37 Este 0 -- -- 43
2017-08-02 18:00:00 29.5 30 Este 46 Este 0 -- -- 36
2017-08-02 17:00:00 28.2 32 Este 41 Este 0 -- -- 38
2017-08-02 16:00:00 25.2 26 Oeste 36 Sur 0.6 -- -- 59
2017-08-02 15:00:00 30.2 24 Sudoeste 60 Oeste 0 -- -- 34
2017-08-02 14:00:00 25.9 46 Oeste 81 Oeste 0 -- -- 45
2017-08-02 13:00:00 24.4 60 Oeste 80 Sudoeste 0 -- -- 47
2017-08-02 12:00:00 27.6 57 Sudoeste 69 Sudoeste 0 -- -- 34
2017-08-02 11:00:00 26.4 10 Este 23 Nordeste 0 -- -- 57
2017-08-02 10:00:00 22.4 12 Este 16 Este 0 -- -- 75
2017-08-02 09:00:00 21.7 9 Nordeste 18 Este 0 -- -- 78
2017-08-02 08:00:00 21.7 5 Este 15 Oeste 0 -- -- 74
2017-08-02 07:00:00 20.5 11 Oeste 13 Oeste 0 -- -- 83
2017-08-02 06:00:00 22.1 3 Noroeste 15 Noroeste 0 -- -- 75
2017-08-02 05:00:00 21.8 6 Noroeste 16 Noroeste 0 -- -- 80
2017-08-02 04:00:00 23.2 9 Norte 18 Norte 0 -- -- 64
2017-08-02 03:00:00 24.3 6 Norte 18 Sudoeste 0 -- -- 49
2017-08-02 02:00:00 25 15 Sur 30 Sudoeste 0 -- -- 47
2017-08-02 01:00:00 24.1 18 Sur 27 Sur 0 -- -- 48
2017-08-02 00:00:00 23.4 11 Sudoeste 25 Sudoeste 0 -- -- 61
2017-08-01 23:00:00 24.4 6 Este 11 Norte 0 -- -- 66
2017-08-01 22:00:00 24.9 7 Norte 15 Nordeste 0 -- -- 60
2017-08-01 21:00:00 25.8 12 Nordeste 22 Nordeste 0 -- -- 54
2017-08-01 20:00:00 27.1 17 Nordeste 23 Este 0 -- -- 48
2017-08-01 19:00:00 27.5 21 Este 29 Nordeste 0 -- -- 46
2017-08-01 18:00:00 26.7 21 Este 31 Este 0 -- -- 50
2017-08-01 17:00:00 25.9 15 Este 24 Este 0 -- -- 51
2017-08-01 16:00:00 24.7 12 Nordeste 24 Este 0 -- -- 55
2017-08-01 15:00:00 24.2 13 Nordeste 22 Nordeste 0 -- -- 57
2017-08-01 14:00:00 24.8 11 Norte 23 Nordeste 0 -- -- 56
2017-08-01 13:00:00 22 13 Este 21 Este 0 -- -- 63
2017-08-01 12:00:00 22.8 9 Nordeste 18 Nordeste 0 -- -- 61
2017-08-01 11:00:00 22.5 13 Este 18 Este 0 -- -- 63
2017-08-01 10:00:00 20.5 8 Oeste 13 Oeste 0 -- -- 69
2017-08-01 09:00:00 19.5 9 Oeste 15 Oeste 0 -- -- 73
2017-08-01 08:00:00 18.5 7 Oeste 12 Noroeste 0 -- -- 77
2017-08-01 07:00:00 18.3 4 Oeste 13 Oeste 0 -- -- 78
2017-08-01 06:00:00 18.6 9 Sudoeste 28 Oeste 0 -- -- 77
2017-08-01 05:00:00 19.2 20 Oeste 29 Oeste 0 -- -- 75
2017-08-01 04:00:00 19.9 12 Noroeste 24 Noroeste 0 -- -- 71
2017-08-01 03:00:00 20.7 17 Noroeste 23 Noroeste 0 -- -- 69
2017-08-01 02:00:00 22.2 17 Noroeste 39 Noroeste 0 -- -- 65
2017-08-01 01:00:00 24.2 28 Noroeste 42 Noroeste 0 -- -- 60
2017-08-01 00:00:00 27.6 19 Sur 27 Sur 0 -- -- 47
2017-07-31 23:00:00 28.3 19 Sur 25 Sur 0 -- -- 50
2017-07-31 22:00:00 28 19 Sudeste 30 Sudeste 0 -- -- 53
2017-07-31 21:00:00 30 20 Sur 33 Sur 0 -- -- 47
2017-07-31 20:00:00 31 23 Sur 43 Sur 0 -- -- 45
2017-07-31 19:00:00 32 26 Sudeste 47 Sudeste 0 -- -- 41
2017-07-31 18:00:00 33.7 16 Sudeste 38 Este 0 -- -- 37
2017-07-31 17:00:00 33.5 29 Este 43 Este 0 -- -- 38
2017-07-31 16:00:00 31.9 23 Nordeste 35 Este 0 -- -- 43
2017-07-31 15:00:00 30 20 Este 33 Este 0 -- -- 44
2017-07-31 14:00:00 28.2 19 Este 31 Este 0 -- -- 48
2017-07-31 13:00:00 26.5 16 Este 25 Nordeste 0 -- -- 50
2017-07-31 12:00:00 24.7 13 Este 21 Este 0 -- -- 55
2017-07-31 11:00:00 23.2 9 Este 15 Nordeste 0 -- -- 59
2017-07-31 10:00:00 21.2 8 Nordeste 16 Nordeste 0 -- -- 64
2017-07-31 09:00:00 20.4 9 Nordeste 18 Nordeste 0 -- -- 67
2017-07-31 08:00:00 19.3 5 Este 8 Sudoeste 0 -- -- 73
2017-07-31 07:00:00 18.2 5 Oeste 10 Oeste 0 -- -- 77
2017-07-31 06:00:00 18.6 10 Oeste 12 Oeste 0 -- -- 76
2017-07-31 05:00:00 19.8 3 Oeste 12 Oeste 0 -- -- 70
2017-07-31 04:00:00 20.1 8 Oeste 13 Norte 0 -- -- 69
2017-07-31 03:00:00 21.2 11 Noroeste 23 Nordeste 0 -- -- 69
2017-07-31 02:00:00 22.5 16 Nordeste 45 Noroeste 0 -- -- 78
2017-07-31 01:00:00 26 28 Norte 43 Norte 0 -- -- 60
2017-07-31 00:00:00 28.1 20 Sur 26 Sudoeste 0 -- -- 34
2017-07-30 23:00:00 28.1 19 Sur 29 Sur 0 -- -- 43
2017-07-30 22:00:00 29.7 20 Sur 34 Sur 0 -- -- 40
2017-07-30 21:00:00 30.3 18 Sur 32 Sudeste 0 -- -- 45
2017-07-30 20:00:00 30.4 22 Sudeste 35 Sudeste 0 -- -- 48
2017-07-30 19:00:00 30.9 19 Sudeste 40 Este 0 -- -- 50
2017-07-30 18:00:00 32.3 18 Sudeste 40 Este 0 -- -- 44
2017-07-30 17:00:00 34.3 22 Este 38 Este 0 -- -- 28
2017-07-30 16:00:00 34.4 18 Este 35 Este 0 -- -- 23
2017-07-30 15:00:00 34 20 Este 35 Este 0 -- -- 25
2017-07-30 14:00:00 32.2 23 Este 33 Este 0 -- -- 34
2017-07-30 13:00:00 31.9 16 Este 28 Nordeste 0 -- -- 37
2017-07-30 12:00:00 31.2 11 Este 20 Este 0 -- -- 34
2017-07-30 11:00:00 29.4 8 Este 16 Nordeste 0 -- -- 44
2017-07-30 10:00:00 27.7 8 Este 15 Noroeste 0 -- -- 45
2017-07-30 09:00:00 25.4 7 Noroeste 24 Oeste 0 -- -- 42
2017-07-30 08:00:00 24.7 13 Oeste 18 Oeste 0 -- -- 41
2017-07-30 07:00:00 24.5 16 Oeste 22 Oeste 0 -- -- 39
2017-07-30 06:00:00 24.7 18 Oeste 24 Oeste 0 -- -- 39
2017-07-30 05:00:00 24.5 18 Oeste 21 Oeste 0 -- -- 38
2017-07-30 04:00:00 24.6 9 Sudoeste 18 Oeste 0 -- -- 43
2017-07-30 03:00:00 24.7 11 Oeste 17 Sudoeste 0 -- -- 64
2017-07-30 02:00:00 25.9 7 Sudoeste 16 Sudoeste 0 -- -- 59
2017-07-30 01:00:00 25.7 13 Oeste 23 Oeste 0 -- -- 65
2017-07-30 00:00:00 25.8 13 Sudoeste 18 Oeste 0 -- -- 65
2017-07-29 23:00:00 26.9 4 Oeste 20 Sur 0 -- -- 62
2017-07-29 22:00:00 28.4 12 Sur 21 Sur 0 -- -- 57
2017-07-29 21:00:00 28.9 16 Sur 23 Sur 0 -- -- 57
2017-07-29 20:00:00 30.5 20 Este 39 Este 0 -- -- 51
2017-07-29 19:00:00 31.7 23 Este 34 Este 0 -- -- 49
2017-07-29 18:00:00 32.2 21 Este 37 Este 0 -- -- 39
2017-07-29 17:00:00 32.2 23 Este 36 Este 0 -- -- 37
2017-07-29 16:00:00 32.7 21 Este 32 Este 0 -- -- 36
2017-07-29 15:00:00 31.9 17 Este 29 Este 0 -- -- 36
2017-07-29 14:00:00 30.8 15 Este 26 Este 0 -- -- 37
2017-07-29 13:00:00 29.1 12 Este 20 Este 0 -- -- 37
2017-07-29 12:00:00 28.2 11 Este 19 Este 0 -- -- 37
2017-07-29 11:00:00 26.8 6 Este 14 Este 0 -- -- 37
2017-07-29 10:00:00 24.9 8 Este 13 Este 0 -- -- 44
2017-07-29 09:00:00 22 6 Oeste 12 Oeste 0 -- -- 47
2017-07-29 08:00:00 20.3 11 Oeste 18 Oeste 0 -- -- 52
2017-07-29 07:00:00 20.1 13 Oeste 18 Sudoeste 0 -- -- 47
2017-07-29 06:00:00 20.6 9 Sudoeste 9 Sudoeste 0 -- -- 73
2017-07-29 05:00:00 20.5 8 Noroeste 15 Noroeste 0 -- -- 70
2017-07-29 04:00:00 21.1 12 Noroeste 18 Noroeste 0 -- -- 77
2017-07-29 03:00:00 22.4 12 Noroeste 23 Norte 0 -- -- 74
2017-07-29 02:00:00 24.5 10 Oeste 20 Oeste 0 -- -- 62
2017-07-29 01:00:00 25.7 12 Sudoeste 14 Sur 0 -- -- 59
2017-07-29 00:00:00 27.2 13 Sur 21 Sur 0 -- -- 53
2017-07-28 23:00:00 27 15 Sur 25 Sur 0 -- -- 55
2017-07-28 22:00:00 27.9 19 Sur 31 Este 0 -- -- 54
2017-07-28 21:00:00 29.2 22 Este 30 Este 0 -- -- 47
2017-07-28 20:00:00 30.6 17 Este 25 Este 0 -- -- 35
2017-07-28 19:00:00 30.8 15 Este 25 Este 0 -- -- 32
2017-07-28 18:00:00 30.5 17 Este 31 Este 0 -- -- 33
2017-07-28 17:00:00 30.4 16 Este 28 Este 0 -- -- 36
2017-07-28 16:00:00 30.1 17 Este 30 Este 0 -- -- 39
2017-07-28 15:00:00 29.2 12 Nordeste 24 Nordeste 0 -- -- 41
2017-07-28 14:00:00 28.1 15 Nordeste 27 Este 0 -- -- 45
2017-07-28 13:00:00 27.4 10 Este 23 Nordeste 0 -- -- 48
2017-07-28 12:00:00 26.3 12 Este 21 Nordeste 0 -- -- 51
2017-07-28 11:00:00 25.8 10 Nordeste 15 Nordeste 0 -- -- 49
2017-07-28 10:00:00 22.8 5 Oeste 17 Oeste 0 -- -- 57
2017-07-28 09:00:00 20.6 12 Oeste 22 Oeste 0 -- -- 65
2017-07-28 08:00:00 19.3 12 Oeste 21 Oeste 0 -- -- 66
2017-07-28 07:00:00 19.4 14 Oeste 16 Oeste 0 -- -- 64
2017-07-28 06:00:00 20.1 12 Oeste 19 Oeste 0 -- -- 62
2017-07-28 05:00:00 20.8 17 Oeste 25 Oeste 0 -- -- 60
2017-07-28 04:00:00 21.4 22 Oeste 26 Oeste 0 -- -- 59
2017-07-28 03:00:00 22.6 18 Oeste 24 Oeste 0 -- -- 53
2017-07-28 02:00:00 24.8 16 Oeste 21 Oeste 0 -- -- 48
2017-07-28 01:00:00 26.6 10 Oeste 25 Oeste 0 -- -- 41
2017-07-28 00:00:00 25.5 14 Sudoeste 17 Sudoeste 0 -- -- 56
2017-07-27 23:00:00 27.4 11 Sur 19 Sudeste 0 -- -- 50
2017-07-27 22:00:00 28.6 9 Sudeste 22 Sudeste 0 -- -- 47
2017-07-27 21:00:00 30.6 13 Este 22 Este 0 -- -- 28
2017-07-27 20:00:00 31.5 17 Este 28 Este 0 -- -- 27
2017-07-27 19:00:00 31.7 21 Este 32 Este 0 -- -- 27
2017-07-27 18:00:00 32.2 17 Este 33 Este 0 -- -- 27
2017-07-27 17:00:00 32.4 17 Nordeste 27 Este 0 -- -- 27
2017-07-27 16:00:00 32.2 13 Nordeste 33 Este 0 -- -- 26
2017-07-27 15:00:00 31.5 19 Este 31 Este 0 -- -- 26
2017-07-27 14:00:00 30.8 19 Este 27 Nordeste 0 -- -- 27
2017-07-27 13:00:00 30.3 15 Nordeste 26 Nordeste 0 -- -- 28
2017-07-27 12:00:00 28.5 4 Sur 11 Sudoeste 0 -- -- 32
2017-07-27 11:00:00 26.7 3 Oeste 15 Este 0 -- -- 31
2017-07-27 10:00:00 25.5 8 Este 14 Este 0 -- -- 30
2017-07-27 09:00:00 22.8 2 Nordeste 10 Sudoeste 0 -- -- 38
2017-07-27 08:00:00 19.7 10 Sudoeste 15 Oeste 0 -- -- 49
2017-07-27 07:00:00 18.8 14 Oeste 18 Oeste 0 -- -- 50
2017-07-27 06:00:00 19 16 Oeste 22 Oeste 0 -- -- 49
2017-07-27 05:00:00 19.6 15 Sudoeste 27 Sudoeste 0 -- -- 50
2017-07-27 04:00:00 19.1 20 Oeste 25 Oeste 0 -- -- 59
2017-07-27 03:00:00 19.7 18 Oeste 22 Oeste 0 -- -- 58
2017-07-27 02:00:00 20.4 17 Oeste 28 Oeste 0 -- -- 56
2017-07-27 01:00:00 21 23 Oeste 33 Oeste 0 -- -- 54
2017-07-27 00:00:00 22.9 27 Noroeste 33 Noroeste 0 -- -- 44
2017-07-26 23:00:00 23.2 24 Noroeste 30 Noroeste 0 -- -- 47
2017-07-26 22:00:00 24 15 Noroeste 30 Noroeste 0 -- -- 45
2017-07-26 21:00:00 26.2 22 Noroeste 33 Noroeste 0 -- -- 42
2017-07-26 20:00:00 27.5 24 Norte 36 Norte 0 -- -- 37
2017-07-26 19:00:00 28.5 24 Noroeste 38 Noroeste 0 -- -- 35
2017-07-26 18:00:00 28.5 22 Noroeste 45 Noroeste 0 -- -- 34
2017-07-26 17:00:00 28.2 28 Noroeste 43 Noroeste 0 -- -- 35
2017-07-26 16:00:00 27.8 19 Noroeste 39 Noroeste 0 -- -- 34
2017-07-26 15:00:00 26.7 19 Noroeste 39 Noroeste 0 -- -- 37
2017-07-26 14:00:00 24.7 31 Noroeste 46 Noroeste 0 -- -- 40
2017-07-26 13:00:00 24.1 23 Norte 39 Noroeste 0 -- -- 39
2017-07-26 12:00:00 21.9 19 Noroeste 32 Noroeste 0 -- -- 41
2017-07-26 11:00:00 19.6 22 Noroeste 37 Oeste 0 -- -- 48
2017-07-26 10:00:00 17 28 Noroeste 37 Oeste 0 -- -- 56
2017-07-26 09:00:00 15.1 21 Oeste 32 Oeste 0 -- -- 65
2017-07-26 08:00:00 13.1 20 Oeste 29 Oeste 0 -- -- 75
2017-07-26 07:00:00 12.9 26 Oeste 49 Oeste 0 -- -- 74
2017-07-26 06:00:00 13.3 36 Oeste 51 Oeste 0 -- -- 72
2017-07-26 05:00:00 13.5 45 Oeste 52 Oeste 0 -- -- 72
2017-07-26 04:00:00 13.6 31 Oeste 46 Oeste 0 -- -- 72
2017-07-26 03:00:00 13.9 28 Oeste 54 Oeste 0 -- -- 71
2017-07-26 02:00:00 14.3 43 Oeste 63 Oeste 0 -- -- 69
2017-07-26 01:00:00 14.8 28 Oeste 40 Oeste 0 -- -- 70
2017-07-26 00:00:00 15.6 26 Oeste 44 Oeste 0 -- -- 67
2017-07-25 23:00:00 16.6 31 Oeste 52 Oeste 0 -- -- 63
2017-07-25 22:00:00 17.7 24 Noroeste 44 Noroeste 0 -- -- 57
2017-07-25 21:00:00 19 30 Noroeste 40 Noroeste 0 -- -- 53
2017-07-25 20:00:00 20.9 29 Noroeste 44 Noroeste 0 -- -- 48
2017-07-25 19:00:00 22.3 31 Norte 48 Norte 0 -- -- 44
2017-07-25 18:00:00 23.1 33 Noroeste 55 Noroeste 0 -- -- 43
2017-07-25 17:00:00 23.3 32 Noroeste 51 Noroeste 0 -- -- 44
2017-07-25 16:00:00 23.2 35 Noroeste 53 Noroeste 0 -- -- 44
2017-07-25 15:00:00 22.4 27 Noroeste 50 Noroeste 0 -- -- 45
2017-07-25 14:00:00 21.4 31 Noroeste 46 Noroeste 0 -- -- 47
2017-07-25 13:00:00 20.2 30 Noroeste 46 Oeste 0 -- -- 51
2017-07-25 12:00:00 19 29 Noroeste 46 Noroeste 0 -- -- 54
2017-07-25 11:00:00 17.1 31 Noroeste 46 Noroeste 0 -- -- 59
2017-07-25 10:00:00 15.6 30 Noroeste 60 Noroeste 0 -- -- 66
2017-07-25 09:00:00 14.9 31 Noroeste 57 Noroeste 0 -- -- 69
2017-07-25 08:00:00 13.8 42 Oeste 60 Noroeste 0 -- -- 76
2017-07-25 07:00:00 13.6 40 Oeste 64 Oeste 0 -- -- 76
2017-07-25 06:00:00 13.8 38 Noroeste 55 Oeste 0 -- -- 77
2017-07-25 05:00:00 13.9 40 Oeste 62 Oeste 0 -- -- 76
2017-07-25 04:00:00 14.1 37 Oeste 50 Oeste 0 -- -- 78
2017-07-25 03:00:00 14.6 36 Oeste 49 Oeste 0 -- -- 79
2017-07-25 02:00:00 15.1 35 Oeste 53 Oeste 0 -- -- 77
2017-07-25 01:00:00 15.8 32 Oeste 45 Oeste 0 -- -- 75
2017-07-25 00:00:00 16.7 31 Oeste 62 Noroeste 0 -- -- 71
2017-07-24 23:00:00 17.8 37 Noroeste 64 Noroeste 0 -- -- 67
2017-07-24 22:00:00 19 38 Noroeste 58 Noroeste 0 -- -- 60
2017-07-24 21:00:00 20.9 37 Noroeste 66 Noroeste 0 -- -- 55
2017-07-24 20:00:00 23.2 40 Noroeste 66 Noroeste 0 -- -- 47
2017-07-24 19:00:00 24.3 43 Noroeste 62 Noroeste 0 -- -- 44
2017-07-24 18:00:00 25.2 41 Noroeste 59 Norte 0 -- -- 41
2017-07-24 17:00:00 26 33 Noroeste 54 Noroeste 0 -- -- 38
2017-07-24 16:00:00 25.9 30 Noroeste 52 Noroeste 0 -- -- 42
2017-07-24 15:00:00 24.4 39 Noroeste 53 Norte 0 -- -- 45
2017-07-24 14:00:00 24.2 31 Noroeste 48 Norte 0 -- -- 49
2017-07-24 13:00:00 22.2 30 Norte 46 Noroeste 0 -- -- 58
2017-07-24 12:00:00 21.3 29 Noroeste 43 Noroeste 0 -- -- 61
2017-07-24 11:00:00 20.1 32 Noroeste 49 Noroeste 0 -- -- 68
2017-07-24 10:00:00 19.1 31 Noroeste 49 Noroeste 0 -- -- 70
2017-07-24 09:00:00 17.7 26 Noroeste 36 Noroeste 0 -- -- 76
2017-07-24 08:00:00 15.8 17 Oeste 25 Oeste 0 -- -- 84
2017-07-24 07:00:00 15.3 18 Oeste 29 Oeste 0 -- -- 84
2017-07-24 06:00:00 15.2 24 Oeste 37 Oeste 0 -- -- 83
2017-07-24 05:00:00 15.6 28 Oeste 36 Oeste 0 -- -- 80
2017-07-24 04:00:00 15.9 25 Noroeste 35 Oeste 0 -- -- 77
2017-07-24 03:00:00 16.8 27 Oeste 37 Noroeste 0 -- -- 70
2017-07-24 02:00:00 18.2 26 Noroeste 38 Noroeste 0 -- -- 65
2017-07-24 01:00:00 20.1 27 Noroeste 37 Noroeste 0 -- -- 54
2017-07-24 00:00:00 21.1 18 Noroeste 29 Norte 0 -- -- 55
2017-07-23 23:00:00 22.4 22 Noroeste 27 Noroeste 0 -- -- 61
2017-07-23 22:00:00 23.1 7 Oeste 20 Noroeste 0 -- -- 60
2017-07-23 21:00:00 24.2 8 Noroeste 22 Noroeste 0 -- -- 59
2017-07-23 20:00:00 24.8 17 Noroeste 23 Noroeste 0 -- -- 53
2017-07-23 19:00:00 23.9 11 Oeste 22 Oeste 0 -- -- 60
2017-07-23 18:00:00 21.5 11 Sudoeste 22 Sur 0 -- -- 73
2017-07-23 17:00:00 18 23 Sudoeste 59 Sudeste 0.2 -- -- 83
2017-07-23 16:00:00 19.1 26 Este 36 Oeste 3.8 -- -- 87
2017-07-23 15:00:00 21.3 23 Este 40 Este 1 -- -- 77
2017-07-23 14:00:00 24.7 23 Este 33 Este 0 -- -- 54
2017-07-23 13:00:00 23.8 13 Este 27 Este 0 -- -- 60
2017-07-23 12:00:00 22.5 10 Este 21 Este 0 -- -- 60
2017-07-23 11:00:00 20.5 11 Este 18 Este 0 -- -- 66
2017-07-23 10:00:00 18.9 4 Nordeste 13 Noroeste 0 -- -- 72
2017-07-23 09:00:00 17.1 11 Oeste 18 Oeste 0 -- -- 79
2017-07-23 08:00:00 15.8 15 Oeste 23 Oeste 0 -- -- 83
2017-07-23 07:00:00 15.7 19 Oeste 24 Oeste 0 -- -- 83
2017-07-23 06:00:00 16.6 15 Oeste 23 Oeste 0 -- -- 80
2017-07-23 05:00:00 17.2 21 Oeste 30 Noroeste 0 -- -- 77
2017-07-23 04:00:00 17.7 21 Oeste 28 Oeste 0 -- -- 76
2017-07-23 03:00:00 18.8 20 Oeste 26 Oeste 0 -- -- 73
2017-07-23 02:00:00 20.7 17 Noroeste 40 Noroeste 0 -- -- 86
2017-07-23 01:00:00 22.1 12 Sudoeste 17 Sudoeste 0 -- -- 81
2017-07-23 00:00:00 22.5 14 Sudoeste 18 Sudoeste 0 -- -- 80
2017-07-22 23:00:00 23.6 16 Sur 22 Sur 0 -- -- 75
2017-07-22 22:00:00 24.3 21 Sur 27 Sur 0 -- -- 73
2017-07-22 21:00:00 25.8 8 Sudeste 32 Este 0 -- -- 67
2017-07-22 20:00:00 27.1 24 Este 36 Este 0 -- -- 61
2017-07-22 19:00:00 28 22 Este 37 Este 0 -- -- 56
2017-07-22 18:00:00 27.6 31 Este 39 Este 0 -- -- 58
2017-07-22 17:00:00 28.7 19 Este 39 Este 0 -- -- 50
2017-07-22 16:00:00 28.3 29 Este 42 Este 0 -- -- 53
2017-07-22 15:00:00 27.7 24 Este 40 Este 0 -- -- 54
2017-07-22 14:00:00 26.2 23 Este 34 Este 0 -- -- 58
2017-07-22 13:00:00 24.6 19 Este 27 Este 0 -- -- 63
2017-07-22 12:00:00 23.5 15 Este 21 Este 0 -- -- 69
2017-07-22 11:00:00 21.5 8 Este 16 Este 0 -- -- 78
2017-07-22 10:00:00 20.5 8 Este 13 Nordeste 0 -- -- 82
2017-07-22 09:00:00 18.7 8 Oeste 16 Oeste 0 -- -- 90
2017-07-22 08:00:00 17 11 Oeste 18 Oeste 0 -- -- 94
2017-07-22 07:00:00 16.6 17 Oeste 20 Sudoeste 0 -- -- 95
2017-07-22 06:00:00 16.8 9 Sudoeste 19 Noroeste 0 -- -- 93
2017-07-22 05:00:00 17 13 Noroeste 21 Noroeste 0 -- -- 93
2017-07-22 04:00:00 17.6 16 Oeste 22 Oeste 0 -- -- 94
2017-07-22 03:00:00 18.4 15 Noroeste 22 Noroeste 0 -- -- 91
2017-07-22 02:00:00 19.5 12 Sudoeste 18 Norte 0 -- -- 85
2017-07-22 01:00:00 20.3 4 Sudeste 12 Sudoeste 0 -- -- 84
2017-07-22 00:00:00 20.9 6 Sur 18 Sur 0 -- -- 81